createdAt,value
2022-08-05T00:00:18.766Z,42.17
2022-08-05T00:02:51.317Z,42.33
2022-08-05T00:06:03.030Z,42.13
2022-08-05T00:08:32.719Z,42.30
2022-08-05T00:11:01.418Z,42.62
2022-08-05T00:13:39.192Z,42.51
2022-08-05T00:16:12.237Z,42.54
2022-08-05T00:18:42.874Z,42.70
2022-08-05T00:21:14.512Z,42.73
2022-08-05T00:23:46.009Z,42.88
2022-08-05T00:26:16.332Z,43.24
2022-08-05T00:28:45.886Z,43.10
2022-08-05T00:31:13.684Z,43.07
2022-08-05T00:34:54.892Z,42.77
2022-08-05T00:37:09.861Z,42.87
2022-08-05T00:39:15.354Z,43.04
2022-08-05T00:41:46.794Z,43.34
2022-08-05T00:44:30.387Z,43.63
2022-08-05T00:47:01.943Z,43.73
2022-08-05T00:49:33.104Z,43.39
2022-08-05T00:52:28.410Z,43.88
2022-08-05T00:54:56.281Z,43.78
2022-08-05T00:57:25.361Z,43.95
2022-08-05T01:00:07.323Z,43.32
2022-08-05T01:02:38.679Z,43.62
2022-08-05T01:05:09.966Z,43.38
2022-08-05T01:07:37.389Z,43.42
2022-08-05T01:10:29.643Z,43.66
2022-08-05T01:13:12.960Z,43.80
2022-08-05T01:15:52.441Z,44.19
2022-08-05T01:18:31.995Z,43.98
2022-08-05T01:21:02.589Z,43.84
2022-08-05T01:23:35.587Z,43.93
2022-08-05T01:26:18.264Z,43.65
2022-08-05T01:28:57.441Z,43.57
2022-08-05T01:31:45.165Z,43.92
2022-08-05T01:34:35.881Z,43.85
2022-08-05T01:37:08.970Z,43.77
2022-08-05T01:39:47.169Z,43.93
2022-08-05T01:42:17.937Z,44.14
2022-08-05T01:44:54.060Z,44.58
2022-08-05T01:47:23.019Z,44.84
2022-08-05T01:50:01.277Z,45.16
2022-08-05T01:52:30.678Z,45.51
2022-08-05T01:55:02.315Z,45.25
2022-08-05T01:58:29.707Z,45.33
2022-08-05T02:00:30.627Z,45.64
2022-08-05T02:03:04.080Z,46.21
2022-08-05T02:05:34.336Z,46.43
2022-08-05T02:08:03.978Z,46.52
2022-08-05T02:10:40.592Z,46.74
2022-08-05T02:13:16.146Z,46.75
2022-08-05T02:15:51.299Z,46.92
2022-08-05T02:18:32.645Z,46.96
2022-08-05T02:21:14.657Z,46.83
2022-08-05T02:23:44.733Z,46.96
2022-08-05T02:26:17.211Z,47.16
2022-08-05T02:28:45.991Z,47.46
2022-08-05T02:31:22.544Z,47.39
2022-08-05T02:33:58.658Z,47.55
2022-08-05T02:36:31.190Z,47.95
2022-08-05T02:39:00.674Z,47.88
2022-08-05T02:41:42.991Z,48.10
2022-08-05T02:44:16.229Z,48.15
2022-08-05T02:46:59.903Z,48.20
2022-08-05T02:49:36.434Z,47.98
2022-08-05T02:52:09.541Z,47.94
2022-08-05T02:54:41.025Z,48.31
2022-08-05T02:58:09.654Z,48.04
2022-08-05T03:00:01.447Z,48.15
2022-08-05T03:02:33.173Z,48.00
2022-08-05T03:05:01.198Z,48.01
2022-08-05T03:08:01.183Z,47.76
2022-08-05T03:10:24.615Z,47.69
2022-08-05T03:12:54.074Z,47.74
2022-08-05T03:15:23.627Z,47.68
2022-08-05T03:17:55.851Z,47.77
2022-08-05T03:20:24.502Z,47.70
2022-08-05T03:22:57.184Z,47.82
2022-08-05T03:26:03.681Z,47.69
2022-08-05T03:28:14.084Z,47.57
2022-08-05T03:30:42.662Z,47.73
2022-08-05T03:33:09.923Z,47.49
2022-08-05T03:35:40.854Z,47.29
2022-08-05T03:38:12.705Z,47.20
2022-08-05T03:40:45.052Z,46.80
2022-08-05T03:44:09.830Z,46.45
2022-08-05T03:46:03.994Z,46.36
2022-08-05T03:48:35.457Z,46.21
2022-08-05T03:52:48.553Z,46.21
2022-08-05T03:56:04.637Z,46.12
2022-08-05T03:57:00.341Z,45.91
2022-08-05T03:59:46.777Z,45.97
2022-08-05T04:02:37.604Z,45.83
2022-08-05T04:05:09.611Z,45.69
2022-08-05T04:07:53.081Z,45.75
2022-08-05T04:10:33.273Z,45.32
2022-08-05T04:13:06.571Z,45.26
2022-08-05T04:15:36.519Z,45.04
2022-08-05T04:18:07.432Z,44.62
2022-08-05T04:20:35.284Z,44.09
2022-08-05T04:23:02.725Z,44.17
2022-08-05T04:25:56.543Z,44.00
2022-08-05T04:28:19.505Z,43.79
2022-08-05T04:30:47.149Z,43.60
2022-08-05T04:33:15.596Z,42.96
2022-08-05T04:36:16.556Z,42.61
2022-08-05T04:38:39.950Z,42.69
2022-08-05T04:41:09.610Z,43.16
2022-08-05T04:43:46.509Z,42.88
2022-08-05T04:46:28.473Z,42.62
2022-08-05T04:48:58.024Z,42.31
2022-08-05T04:51:26.253Z,42.77
2022-08-05T04:53:57.860Z,42.59
2022-08-05T04:56:34.280Z,42.61
2022-08-05T04:59:21.854Z,42.44
2022-08-05T05:02:36.166Z,42.19
2022-08-05T05:04:47.537Z,42.35
2022-08-05T05:07:17.756Z,42.48
2022-08-05T05:09:45.540Z,41.83
2022-08-05T05:12:12.753Z,41.56
2022-08-05T05:14:49.103Z,42.04
2022-08-05T05:17:23.457Z,41.16
2022-08-05T05:19:56.363Z,41.64
2022-08-05T05:22:26.619Z,41.32
2022-08-05T05:24:57.757Z,41.21
2022-08-05T05:27:41.280Z,41.11
2022-08-05T05:30:15.590Z,41.28
2022-08-05T05:33:00.247Z,40.91
2022-08-05T05:35:34.129Z,40.79
2022-08-05T05:38:09.347Z,39.78
2022-08-05T05:40:48.249Z,39.94
2022-08-05T05:43:28.194Z,39.87
2022-08-05T05:46:12.265Z,39.22
2022-08-05T05:48:44.246Z,39.30
2022-08-05T05:51:15.159Z,39.08
2022-08-05T05:53:54.206Z,39.49
2022-08-05T05:56:32.347Z,39.24
2022-08-05T05:59:05.661Z,39.68
2022-08-05T06:01:37.910Z,38.17
2022-08-05T06:04:07.766Z,38.33
2022-08-05T06:06:36.033Z,38.45
2022-08-05T06:09:04.932Z,38.04
2022-08-05T06:11:33.009Z,38.22
2022-08-05T06:14:00.824Z,38.05
2022-08-05T06:16:36.973Z,37.67
2022-08-05T06:19:07.082Z,38.19
2022-08-05T06:21:37.401Z,37.48
2022-08-05T06:24:07.705Z,37.65
2022-08-05T06:26:52.391Z,37.48
2022-08-05T06:29:43.059Z,37.08
2022-08-05T06:32:17.277Z,36.88
2022-08-05T06:34:56.432Z,36.36
2022-08-05T06:37:56.611Z,36.58
2022-08-05T06:40:20.560Z,36.40
2022-08-05T06:42:52.734Z,36.05
2022-08-05T06:45:45.136Z,35.65
2022-08-05T06:48:36.685Z,35.27
2022-08-05T06:50:57.003Z,35.45
2022-08-05T06:53:28.258Z,35.44
2022-08-05T06:56:00.306Z,35.51
2022-08-05T06:58:35.152Z,36.17
2022-08-05T07:01:06.242Z,35.64
2022-08-05T07:03:34.178Z,35.63
2022-08-05T07:06:05.907Z,35.02
2022-08-05T07:08:47.732Z,35.25
2022-08-05T07:11:21.886Z,34.77
2022-08-05T07:14:20.645Z,35.22
2022-08-05T07:18:02.049Z,36.19
2022-08-05T07:20:34.169Z,34.89
2022-08-05T07:22:38.276Z,35.69
2022-08-05T07:25:22.675Z,35.39
2022-08-05T07:27:56.591Z,34.47
2022-08-05T07:30:32.909Z,34.62
2022-08-05T07:33:05.066Z,35.13
2022-08-05T07:36:02.249Z,35.57
2022-08-05T07:38:32.581Z,33.87
2022-08-05T07:42:07.743Z,34.14
2022-08-05T07:43:58.901Z,33.65
2022-08-05T07:46:27.854Z,34.52
2022-08-05T07:49:02.777Z,33.71
2022-08-05T07:51:36.930Z,34.72
2022-08-05T07:54:06.406Z,34.62
2022-08-05T07:56:59.841Z,33.80
2022-08-05T07:59:30.991Z,33.77
2022-08-05T08:02:15.483Z,33.63
2022-08-05T08:04:46.702Z,32.79
2022-08-05T08:07:14.191Z,34.04
2022-08-05T08:09:43.237Z,33.22
2022-08-05T08:12:35.036Z,32.89
2022-08-05T08:15:02.726Z,33.75
2022-08-05T08:17:32.200Z,33.23
2022-08-05T08:20:21.107Z,33.69
2022-08-05T08:22:59.965Z,32.00
2022-08-05T08:25:59.679Z,33.11
2022-08-05T08:28:36.183Z,33.64
2022-08-05T08:31:08.533Z,32.58
2022-08-05T08:33:37.939Z,32.14
2022-08-05T08:38:56.817Z,31.13
2022-08-05T08:41:51.199Z,31.42
2022-08-05T08:45:23.664Z,31.43
2022-08-05T08:47:47.699Z,31.05
2022-08-05T08:50:23.438Z,31.62
2022-08-05T08:52:51.483Z,31.18
2022-08-05T08:56:01.756Z,30.16
2022-08-05T08:58:13.254Z,30.17
2022-08-05T09:00:42.657Z,30.99
2022-08-05T09:03:11.420Z,29.42
2022-08-05T09:06:08.010Z,30.05
2022-08-05T09:08:30.043Z,29.53
2022-08-05T09:10:58.250Z,28.74
2022-08-05T09:13:25.509Z,30.09
2022-08-05T09:15:59.621Z,29.01
2022-08-05T09:18:27.348Z,30.17
2022-08-05T09:20:54.692Z,29.52
2022-08-05T09:23:23.520Z,28.53
2022-08-05T09:26:10.324Z,28.11
2022-08-05T09:28:43.616Z,28.43
2022-08-05T09:31:43.508Z,28.02
2022-08-05T09:34:05.843Z,27.60
2022-08-05T09:36:56.279Z,27.58
2022-08-05T09:39:41.298Z,27.52
2022-08-05T09:42:25.274Z,28.05
2022-08-05T09:44:57.379Z,27.26
2022-08-05T09:47:48.469Z,27.38
2022-08-05T09:50:38.814Z,27.98
2022-08-05T09:53:09.087Z,26.49
2022-08-05T09:55:58.137Z,26.78
2022-08-05T09:58:29.161Z,26.52
2022-08-05T10:01:14.982Z,26.11
2022-08-05T10:04:11.074Z,26.71
2022-08-05T10:06:54.723Z,27.05
2022-08-05T10:09:27.443Z,25.49
2022-08-05T10:12:30.736Z,25.46
2022-08-05T10:15:13.496Z,26.13
2022-08-05T10:17:47.399Z,25.49
2022-08-05T10:20:25.576Z,25.27
2022-08-05T10:22:52.945Z,25.99
2022-08-05T10:25:20.519Z,24.80
2022-08-05T10:28:13.910Z,25.98
2022-08-05T10:31:20.393Z,25.79
2022-08-05T10:33:28.783Z,25.01
2022-08-05T10:35:59.677Z,25.35
2022-08-05T10:38:29.242Z,25.62
2022-08-05T10:41:06.259Z,25.82
2022-08-05T10:43:45.773Z,25.93
2022-08-05T10:46:16.815Z,23.83
2022-08-05T10:48:52.860Z,25.58
2022-08-05T10:51:29.144Z,24.27
2022-08-05T10:54:01.793Z,23.99
2022-08-05T10:56:45.087Z,24.50
2022-08-05T11:00:02.938Z,24.09
2022-08-05T11:02:08.641Z,24.37
2022-08-05T11:04:48.954Z,25.00
2022-08-05T11:07:18.558Z,23.51
2022-08-05T11:10:04.057Z,24.36
2022-08-05T11:12:38.331Z,24.26
2022-08-05T11:15:20.872Z,23.75
2022-08-05T11:17:59.717Z,23.20
2022-08-05T11:20:39.202Z,23.79
2022-08-05T11:23:33.589Z,24.08
2022-08-05T11:26:28.101Z,24.83
2022-08-05T11:29:06.829Z,23.93
2022-08-05T11:31:58.123Z,23.32
2022-08-05T11:34:51.608Z,23.41
2022-08-05T11:38:29.937Z,23.98
2022-08-05T11:41:36.820Z,23.50
2022-08-05T11:44:07.001Z,24.04
2022-08-05T11:46:58.167Z,24.05
2022-08-05T11:49:37.548Z,23.86
2022-08-05T11:52:11.115Z,22.50
2022-08-05T11:54:43.520Z,22.73
2022-08-05T11:57:24.966Z,22.78
2022-08-05T11:59:55.414Z,22.76
2022-08-05T12:02:33.022Z,22.84
2022-08-05T12:05:06.871Z,22.68
2022-08-05T12:08:08.074Z,22.38
2022-08-05T12:10:43.652Z,23.14
2022-08-05T12:13:27.736Z,23.59
2022-08-05T12:16:14.653Z,22.75
2022-08-05T12:18:49.523Z,23.16
2022-08-05T12:21:21.791Z,21.41
2022-08-05T12:24:00.028Z,22.64
2022-08-05T12:26:36.108Z,20.99
2022-08-05T12:29:05.791Z,21.41
2022-08-05T12:31:43.773Z,21.50
2022-08-05T12:34:14.689Z,22.06
2022-08-05T12:36:50.403Z,22.66
2022-08-05T12:39:17.850Z,22.24
2022-08-05T12:41:46.141Z,20.92
2022-08-05T12:44:28.562Z,21.39
2022-08-05T12:47:01.850Z,21.86
2022-08-05T12:50:04.594Z,22.30
2022-08-05T12:52:38.591Z,21.94
2022-08-05T12:55:22.157Z,21.49
2022-08-05T12:58:50.148Z,22.68
2022-08-05T13:02:01.802Z,20.88
2022-08-05T13:03:32.564Z,20.46
2022-08-05T13:06:01.583Z,21.05
2022-08-05T13:08:32.999Z,20.33
2022-08-05T13:11:01.716Z,21.12
2022-08-05T13:14:05.367Z,21.69
2022-08-05T13:16:19.961Z,22.36
2022-08-05T13:18:57.637Z,21.26
2022-08-05T13:21:28.480Z,22.29
2022-08-05T13:24:08.770Z,20.84
2022-08-05T13:26:36.511Z,20.79
2022-08-05T13:29:05.079Z,19.87
2022-08-05T13:32:03.311Z,20.10
2022-08-05T13:34:25.927Z,20.17
2022-08-05T13:36:54.446Z,20.04
2022-08-05T13:40:13.858Z,20.58
2022-08-05T13:42:14.522Z,19.60
2022-08-05T13:44:45.413Z,20.62
2022-08-05T13:47:34.946Z,20.84
2022-08-05T13:50:04.566Z,21.34
2022-08-05T13:52:32.311Z,19.95
2022-08-05T13:55:07.895Z,20.24
2022-08-05T13:57:48.527Z,20.68
2022-08-05T14:00:27.304Z,20.55
2022-08-05T14:02:58.350Z,20.28
2022-08-05T14:05:48.243Z,19.69
2022-08-05T14:08:20.074Z,19.52
2022-08-05T14:10:48.913Z,19.91
2022-08-05T14:13:16.388Z,20.14
2022-08-05T14:16:08.394Z,19.25
2022-08-05T14:18:31.037Z,19.63
2022-08-05T14:20:59.331Z,21.09
2022-08-05T14:23:28.815Z,20.44
2022-08-05T14:26:04.833Z,19.84
2022-08-05T14:28:33.467Z,19.91
2022-08-05T14:31:01.755Z,19.70
2022-08-05T14:33:32.575Z,19.51
2022-08-05T14:36:20.436Z,18.79
2022-08-05T14:38:49.359Z,18.75
2022-08-05T14:41:17.803Z,19.62
2022-08-05T14:43:59.434Z,19.68
2022-08-05T14:46:30.839Z,18.89
2022-08-05T14:49:06.555Z,18.32
2022-08-05T14:51:42.577Z,18.55
2022-08-05T14:54:28.425Z,18.74
2022-08-05T14:56:58.490Z,18.26
2022-08-05T14:59:29.438Z,19.40
2022-08-05T15:01:57.704Z,19.13
2022-08-05T15:04:27.361Z,19.58
2022-08-05T15:06:56.408Z,19.31
2022-08-05T15:09:51.618Z,18.31
2022-08-05T15:12:11.593Z,19.27
2022-08-05T15:14:50.154Z,18.70
2022-08-05T15:17:45.896Z,18.77
2022-08-05T15:20:09.786Z,19.17
2022-08-05T15:22:44.824Z,18.43
2022-08-05T15:25:14.316Z,18.79
2022-08-05T15:27:42.740Z,18.88
2022-08-05T15:30:11.186Z,18.57
2022-08-05T15:32:41.466Z,19.34
2022-08-05T15:35:10.535Z,18.92
2022-08-05T15:38:34.455Z,18.94
2022-08-05T15:41:00.284Z,18.79
2022-08-05T15:43:20.301Z,18.98
2022-08-05T15:45:59.786Z,18.69
2022-08-05T15:48:29.896Z,19.94
2022-08-05T15:50:58.291Z,19.53
2022-08-05T15:53:38.307Z,19.67
2022-08-05T15:56:17.903Z,19.38
2022-08-05T15:58:46.359Z,18.41
2022-08-05T16:01:17.303Z,19.18
2022-08-05T16:03:48.557Z,18.39
2022-08-05T16:06:20.315Z,18.87
2022-08-05T16:08:51.288Z,19.52
2022-08-05T16:11:39.993Z,18.91
2022-08-05T16:14:09.622Z,18.10
2022-08-05T16:16:36.811Z,18.16
2022-08-05T16:19:04.559Z,18.20
2022-08-05T16:22:01.004Z,18.47
2022-08-05T16:24:41.083Z,18.91
2022-08-05T16:27:07.385Z,19.18
2022-08-05T16:29:37.454Z,19.16
2022-08-05T16:32:06.642Z,19.42
2022-08-05T16:34:39.360Z,19.13
2022-08-05T16:38:02.602Z,18.37
2022-08-05T16:40:05.332Z,18.93
2022-08-05T16:42:35.446Z,19.42
2022-08-05T16:45:05.970Z,19.12
2022-08-05T16:47:54.390Z,19.00
2022-08-05T16:50:24.758Z,19.26
2022-08-05T16:52:51.852Z,18.94
2022-08-05T16:55:20.431Z,18.40
2022-08-05T16:58:00.065Z,18.59
2022-08-05T17:00:35.098Z,18.44
2022-08-05T17:03:15.120Z,18.41
2022-08-05T17:05:51.747Z,19.41
2022-08-05T17:08:33.425Z,18.78
2022-08-05T17:11:12.524Z,19.10
2022-08-05T17:13:45.298Z,19.29
2022-08-05T17:16:29.940Z,19.35
2022-08-05T17:19:00.587Z,19.52
2022-08-05T17:21:35.284Z,19.74
2022-08-05T17:24:28.419Z,19.82
2022-08-05T17:26:57.157Z,19.79
2022-08-05T17:29:33.973Z,20.76
2022-08-05T17:32:16.785Z,21.02
2022-08-05T17:34:47.767Z,22.56
2022-08-05T17:37:40.865Z,23.14
2022-08-05T17:40:10.600Z,23.48
2022-08-05T17:42:41.580Z,24.33
2022-08-05T17:45:21.301Z,24.89
2022-08-05T17:47:54.609Z,25.47
2022-08-05T17:50:28.558Z,26.03
2022-08-05T17:52:58.960Z,26.11
2022-08-05T17:55:34.547Z,26.51
2022-08-05T17:58:12.931Z,26.53
2022-08-05T18:00:45.396Z,27.19
2022-08-05T18:03:39.211Z,27.21
2022-08-05T18:06:10.867Z,27.00
2022-08-05T18:08:44.490Z,27.44
2022-08-05T18:11:24.793Z,27.86
2022-08-05T18:14:07.110Z,28.31
2022-08-05T18:16:46.780Z,29.06
2022-08-05T18:19:22.538Z,29.15
2022-08-05T18:22:08.547Z,29.13
2022-08-05T18:24:39.637Z,29.49
2022-08-05T18:27:18.162Z,30.34
2022-08-05T18:29:51.952Z,29.97
2022-08-05T18:32:21.023Z,30.67
2022-08-05T18:34:56.444Z,31.31
2022-08-05T18:37:33.368Z,32.09
2022-08-05T18:41:50.292Z,32.31
2022-08-05T18:42:49.461Z,32.73
2022-08-05T18:45:19.908Z,33.46
2022-08-05T18:47:51.518Z,32.34
2022-08-05T18:50:46.438Z,33.23
2022-08-05T18:53:22.200Z,33.96
2022-08-05T18:55:52.014Z,34.26
2022-08-05T18:58:27.379Z,35.24
2022-08-05T19:00:56.923Z,34.80
2022-08-05T19:03:54.987Z,34.78
2022-08-05T19:06:21.885Z,33.74
2022-08-05T19:08:52.225Z,34.41
2022-08-05T19:11:28.042Z,36.24
2022-08-05T19:14:01.212Z,36.59
2022-08-05T19:16:47.185Z,36.31
2022-08-05T19:19:14.671Z,36.15
2022-08-05T19:21:48.122Z,36.32
2022-08-05T19:24:18.652Z,36.94
2022-08-05T19:27:03.958Z,36.99
2022-08-05T19:29:36.433Z,36.86
2022-08-05T19:32:08.626Z,36.79
2022-08-05T19:34:41.995Z,37.06
2022-08-05T19:37:29.928Z,37.83
2022-08-05T19:40:13.421Z,38.40
2022-08-05T19:42:42.699Z,38.22
2022-08-05T19:45:30.474Z,38.19
2022-08-05T19:48:01.119Z,37.92
2022-08-05T19:50:28.743Z,37.81
2022-08-05T19:52:56.866Z,38.01
2022-08-05T19:56:14.843Z,38.02
2022-08-05T19:58:29.410Z,38.14
2022-08-05T20:00:58.084Z,38.27
2022-08-05T20:03:26.414Z,38.48
2022-08-05T20:05:56.635Z,38.45
2022-08-05T20:08:25.249Z,39.42
2022-08-05T20:10:53.654Z,39.34
2022-08-05T20:13:30.218Z,39.79
2022-08-05T20:16:09.916Z,40.20
2022-08-05T20:18:37.843Z,41.06
2022-08-05T20:21:06.959Z,41.07
2022-08-05T20:23:39.726Z,41.66
2022-08-05T20:26:24.801Z,41.71
2022-08-05T20:28:56.914Z,42.00
2022-08-05T20:31:28.578Z,42.14
2022-08-05T20:34:09.372Z,42.16
2022-08-05T20:36:36.534Z,42.54
2022-08-05T20:39:06.298Z,42.56
2022-08-05T20:41:43.958Z,42.05
2022-08-05T20:44:17.722Z,42.09
2022-08-05T20:46:48.083Z,42.06
2022-08-05T20:49:24.050Z,42.22
2022-08-05T20:51:53.651Z,40.95
2022-08-05T20:54:21.647Z,39.07
2022-08-05T20:56:49.118Z,37.69
2022-08-05T20:59:19.115Z,36.95
2022-08-05T21:01:53.759Z,36.47
2022-08-05T21:04:27.103Z,36.30
2022-08-05T21:06:55.046Z,36.21
2022-08-05T21:09:23.040Z,36.30
2022-08-05T21:12:10.654Z,36.33
2022-08-05T21:14:38.900Z,36.36
2022-08-05T21:17:06.598Z,36.49
2022-08-05T21:19:46.955Z,37.03
2022-08-05T21:22:18.447Z,37.04
2022-08-05T21:24:51.516Z,37.23
2022-08-05T21:27:25.317Z,37.85
2022-08-05T21:29:58.234Z,37.50
2022-08-05T21:32:29.476Z,37.96
2022-08-05T21:35:08.461Z,38.27
2022-08-05T21:37:52.781Z,37.97
2022-08-05T21:40:23.128Z,37.96
2022-08-05T21:42:53.586Z,37.96
2022-08-05T21:45:24.819Z,38.67
2022-08-05T21:48:09.679Z,38.76
2022-08-05T21:50:37.401Z,38.81
2022-08-05T21:53:16.448Z,39.28
2022-08-05T21:56:05.394Z,39.40
2022-08-05T21:58:32.832Z,39.57
2022-08-05T22:01:00.772Z,38.78
2022-08-05T22:03:51.899Z,38.71
2022-08-05T22:06:22.471Z,39.06
2022-08-05T22:08:51.829Z,38.80
2022-08-05T22:11:34.572Z,39.09
2022-08-05T22:14:35.793Z,38.95
2022-08-05T22:16:56.984Z,39.56
2022-08-05T22:20:01.088Z,39.80
2022-08-05T22:22:15.972Z,39.17
2022-08-05T22:25:01.681Z,39.37
2022-08-05T22:28:09.825Z,39.66
2022-08-05T22:30:34.919Z,40.08
2022-08-05T22:33:04.227Z,39.99
2022-08-05T22:35:48.575Z,39.91
2022-08-05T22:38:16.966Z,40.31
2022-08-05T22:40:49.770Z,40.36
2022-08-05T22:43:36.944Z,40.11
2022-08-05T22:46:13.285Z,40.33
2022-08-05T22:48:50.323Z,40.31
2022-08-05T22:51:23.339Z,40.00
2022-08-05T22:54:05.105Z,39.99
2022-08-05T22:56:32.566Z,40.36
2022-08-05T22:59:03.963Z,40.95
2022-08-05T23:02:04.178Z,40.83
2022-08-05T23:04:33.727Z,41.31
2022-08-05T23:07:01.451Z,41.99
2022-08-05T23:09:57.280Z,42.10
2022-08-05T23:12:17.922Z,41.83
2022-08-05T23:14:45.233Z,41.38
2022-08-05T23:17:34.229Z,41.42
2022-08-05T23:20:16.616Z,41.40
2022-08-05T23:22:48.505Z,41.55
2022-08-05T23:25:53.363Z,41.70
2022-08-05T23:28:07.214Z,42.02
2022-08-05T23:30:39.579Z,42.31
2022-08-05T23:33:08.678Z,42.97
2022-08-05T23:35:50.729Z,43.53
2022-08-05T23:38:18.358Z,43.16
2022-08-05T23:40:50.204Z,42.89
2022-08-05T23:43:24.772Z,42.69
2022-08-05T23:46:03.998Z,42.74
2022-08-05T23:48:31.342Z,42.73
2022-08-05T23:50:58.624Z,42.77
2022-08-05T23:53:46.183Z,43.21
2022-08-05T23:56:13.968Z,43.58
2022-08-05T23:58:47.237Z,43.70
